Oval Lp No.11 — JL6306 — position and weather

sailwx.info

Track history (hours):
 
Tides and Currents Weather Stations Pressure Air Temp Water Temp Dewpoint Dewpoint Depression Visibility Wind Speed Wind Dir Waves Ship Positions

Oval Lp No.11

Last reported at 2016-Feb-11 03:17 UTC. Time now 2016-Feb-11 04:31 UTC.
Position N 34°34' E 135°26'.

Length 67 m; draft 3.6 m.

Type: Ship (hazmat cat A). MMSI: 431500366.

Date/timePositionNaut miles runAvg speedWind from/ knotsBaromVisibWave heightAir tempDewpointWater temp
2016-Feb-11 03:17N 34°34' E 135°26'0 0.0
2016-Feb-11 02:29N 34°34' E 135°26'3 2.3
2016-Feb-11 01:22N 34°36' E 135°23'3 3.9
2016-Feb-11 00:34N 34°34' E 135°20'1211.7
2016-Feb-10 23:31N 34°25' E 135°09'1212.0
2016-Feb-10 22:29N 34°16' E 134°59'1111.4
2016-Feb-10 21:32N 34°05' E 135°00'2 0.0
2016-Feb-09 08:17N 34°04' E 135°00'912.8
2016-Feb-09 07:33N 34°13' E 134°59'1411.8
2016-Feb-09 06:22N 34°25' E 135°06'1012.1
2016-Feb-09 05:32N 34°32' E 135°16'8 8.4
2016-Feb-09 04:33N 34°35' E 135°25'1 0.7
2016-Feb-09 03:29N 34°34' E 135°26'0 0.0
2016-Feb-09 02:17N 34°34' E 135°26'0 0.4
2016-Feb-09 01:32N 34°35' E 135°25'4 4.1
2016-Feb-09 00:33N 34°35' E 135°21'1212.1
2016-Feb-08 23:33N 34°26' E 135°10'1412.6
2016-Feb-08 22:25N 34°15' E 134°59'1112.3
2016-Feb-08 21:31N 34°04' E 135°01'3 0.1
2016-Feb-07 05:30N 34°07' E 134°59'1213.0
2016-Feb-07 04:33N 34°19' E 134°59'1312.8
2016-Feb-07 03:32N 34°28' E 135°10'1212.4
2016-Feb-07 02:33N 34°36' E 135°22'3 3.4
2016-Feb-07 01:32N 34°34' E 135°26'0 0.0
2016-Feb-07 00:20N 34°34' E 135°26'0 0.0
2016-Feb-06 23:20N 34°34' E 135°26'2 2.3
2016-Feb-06 22:33N 34°36' E 135°25'2 1.4
2016-Feb-06 21:25N 34°35' E 135°23'0 0.0
2016-Feb-06 20:31N 34°35' E 135°23'0 0.0
2016-Feb-06 19:31N 34°35' E 135°23'0 0.0
2016-Feb-06 18:25N 34°35' E 135°23'0 0.0
2016-Feb-06 17:31N 34°35' E 135°23'0 0.0
2016-Feb-06 16:31N 34°35' E 135°23'0 0.0
2016-Feb-06 15:31N 34°35' E 135°23'0 0.0
2016-Feb-06 14:31N 34°35' E 135°23'9 9.0
2016-Feb-06 13:33N 34°30' E 135°15'1110.9
2016-Feb-06 12:33N 34°22' E 135°05'1010.2
2016-Feb-06 11:33N 34°13' E 134°59'238 9.0
2016-Feb-05 09:07N 35°06' E 139°41'711.8
2016-Feb-05 08:33N 35°12' E 139°46'1211.8
2016-Feb-05 07:33N 35°23' E 139°42'1211.6
2016-Feb-05 06:33N 35°30' E 139°54'10 9.6
2016-Feb-05 05:33N 35°33' E 140°05'0 0.0
2016-Feb-05 04:32N 35°33' E 140°05'0 0.0
2016-Feb-05 03:32N 35°33' E 140°05'0 0.0
2016-Feb-05 02:32N 35°33' E 140°05'1 0.9
2016-Feb-05 01:16N 35°34' E 140°05'0 0.0
2016-Feb-05 00:28N 35°34' E 140°05'0 0.0
2016-Feb-04 23:25N 35°34' E 140°05'0 0.0
2016-Feb-04 22:31N 35°34' E 140°05'0 0.0
2016-Feb-04 21:28N 35°34' E 140°05'0 0.0
2016-Feb-04 20:22N 35°34' E 140°05'0 0.0
2016-Feb-04 19:22N 35°34' E 140°05'0 0.0
2016-Feb-04 18:31N 35°34' E 140°05'0 0.0
2016-Feb-04 17:28N 35°34' E 140°05'0 0.1
2016-Feb-04 16:28N 35°34' E 140°05'0 0.0
2016-Feb-04 15:28N 35°34' E 140°05'0 0.0
2016-Feb-04 14:28N 35°34' E 140°05'1 1.5
2016-Feb-04 13:33N 35°33' E 140°03'1211.9
2016-Feb-04 12:33N 35°28' E 139°51'1111.1
2016-Feb-04 11:33N 35°17' E 139°45'1111.1
2016-Feb-04 10:33N 35°06' E 139°44'24310.4
2016-Feb-03 11:08N 34°03' E 134°59'712.5
2016-Feb-03 10:33N 34°10' E 134°59'1511.8
2016-Feb-03 09:19N 34°24' E 135°04'1012.4
2016-Feb-03 08:33N 34°30' E 135°13'1111.3
2016-Feb-03 07:33N 34°36' E 135°25'1 0.4
2016-Feb-03 04:22N 34°34' E 135°26'5 6.1
2016-Feb-03 03:33N 34°34' E 135°20'1211.5
2016-Feb-03 02:31N 34°26' E 135°09'1110.9
2016-Feb-03 01:32N 34°18' E 135°00'1110.8
2016-Feb-03 00:30N 34°07' E 135°00'2 0.1
2016-Feb-01 11:33N 34°05' E 134°60'1613.2
2016-Feb-01 10:21N 34°21' E 134°60'1013.0
2016-Feb-01 09:33N 34°27' E 135°10'1212.2
2016-Feb-01 08:33N 34°35' E 135°21'4 3.8
2016-Feb-01 07:32N 34°34' E 135°26'0 0.0
2016-Feb-01 06:32N 34°34' E 135°26'0 0.0
2016-Feb-01 05:26N 34°34' E 135°26'0 0.3
2016-Feb-01 04:33N 34°35' E 135°25'4 4.2
2016-Feb-01 03:33N 34°36' E 135°20'  
Track history (hours):
 
Tides and Currents Weather Stations Pressure Air Temp Water Temp Dewpoint Dewpoint Depression Visibility Wind Speed Wind Dir Waves Ship Positions

Oval Lp No.11

Last reported at 2016-Feb-11 03:17 UTC. Time now 2016-Feb-11 04:31 UTC.
Position N 34°34' E 135°26'.

Length 67 m; draft 3.6 m.

Type: Ship (hazmat cat A). MMSI: 431500366.

Date/timePositionNaut miles runAvg speedWind from/ knotsBaromVisibWave heightAir tempDewpointWater temp
2016-Feb-11 03:17N 34°34' E 135°26'0 0.0
2016-Feb-11 02:29N 34°34' E 135°26'3 2.3
2016-Feb-11 01:22N 34°36' E 135°23'3 3.9
2016-Feb-11 00:34N 34°34' E 135°20'1211.7
2016-Feb-10 23:31N 34°25' E 135°09'1212.0
2016-Feb-10 22:29N 34°16' E 134°59'1111.4
2016-Feb-10 21:32N 34°05' E 135°00'2 0.0
2016-Feb-09 08:17N 34°04' E 135°00'912.8
2016-Feb-09 07:33N 34°13' E 134°59'1411.8
2016-Feb-09 06:22N 34°25' E 135°06'1012.1
2016-Feb-09 05:32N 34°32' E 135°16'8 8.4
2016-Feb-09 04:33N 34°35' E 135°25'1 0.7
2016-Feb-09 03:29N 34°34' E 135°26'0 0.0
2016-Feb-09 02:17N 34°34' E 135°26'0 0.4
2016-Feb-09 01:32N 34°35' E 135°25'4 4.1
2016-Feb-09 00:33N 34°35' E 135°21'1212.1
2016-Feb-08 23:33N 34°26' E 135°10'1412.6
2016-Feb-08 22:25N 34°15' E 134°59'1112.3
2016-Feb-08 21:31N 34°04' E 135°01'3 0.1
2016-Feb-07 05:30N 34°07' E 134°59'1213.0
2016-Feb-07 04:33N 34°19' E 134°59'1312.8
2016-Feb-07 03:32N 34°28' E 135°10'1212.4
2016-Feb-07 02:33N 34°36' E 135°22'3 3.4
2016-Feb-07 01:32N 34°34' E 135°26'0 0.0
2016-Feb-07 00:20N 34°34' E 135°26'0 0.0
2016-Feb-06 23:20N 34°34' E 135°26'2 2.3
2016-Feb-06 22:33N 34°36' E 135°25'2 1.4
2016-Feb-06 21:25N 34°35' E 135°23'0 0.0
2016-Feb-06 20:31N 34°35' E 135°23'0 0.0
2016-Feb-06 19:31N 34°35' E 135°23'0 0.0
2016-Feb-06 18:25N 34°35' E 135°23'0 0.0
2016-Feb-06 17:31N 34°35' E 135°23'0 0.0
2016-Feb-06 16:31N 34°35' E 135°23'0 0.0
2016-Feb-06 15:31N 34°35' E 135°23'0 0.0
2016-Feb-06 14:31N 34°35' E 135°23'9 9.0
2016-Feb-06 13:33N 34°30' E 135°15'1110.9
2016-Feb-06 12:33N 34°22' E 135°05'1010.2
2016-Feb-06 11:33N 34°13' E 134°59'238 9.0
2016-Feb-05 09:07N 35°06' E 139°41'711.8
2016-Feb-05 08:33N 35°12' E 139°46'1211.8
2016-Feb-05 07:33N 35°23' E 139°42'1211.6
2016-Feb-05 06:33N 35°30' E 139°54'10 9.6
2016-Feb-05 05:33N 35°33' E 140°05'0 0.0
2016-Feb-05 04:32N 35°33' E 140°05'0 0.0
2016-Feb-05 03:32N 35°33' E 140°05'0 0.0
2016-Feb-05 02:32N 35°33' E 140°05'1 0.9
2016-Feb-05 01:16N 35°34' E 140°05'0 0.0
2016-Feb-05 00:28N 35°34' E 140°05'0 0.0
2016-Feb-04 23:25N 35°34' E 140°05'0 0.0
2016-Feb-04 22:31N 35°34' E 140°05'0 0.0
2016-Feb-04 21:28N 35°34' E 140°05'0 0.0
2016-Feb-04 20:22N 35°34' E 140°05'0 0.0
2016-Feb-04 19:22N 35°34' E 140°05'0 0.0
2016-Feb-04 18:31N 35°34' E 140°05'0 0.0
2016-Feb-04 17:28N 35°34' E 140°05'0 0.1
2016-Feb-04 16:28N 35°34' E 140°05'0 0.0
2016-Feb-04 15:28N 35°34' E 140°05'0 0.0
2016-Feb-04 14:28N 35°34' E 140°05'1 1.5
2016-Feb-04 13:33N 35°33' E 140°03'1211.9
2016-Feb-04 12:33N 35°28' E 139°51'1111.1
2016-Feb-04 11:33N 35°17' E 139°45'1111.1
2016-Feb-04 10:33N 35°06' E 139°44'24310.4
2016-Feb-03 11:08N 34°03' E 134°59'712.5
2016-Feb-03 10:33N 34°10' E 134°59'1511.8
2016-Feb-03 09:19N 34°24' E 135°04'1012.4
2016-Feb-03 08:33N 34°30' E 135°13'1111.3
2016-Feb-03 07:33N 34°36' E 135°25'1 0.4
2016-Feb-03 04:22N 34°34' E 135°26'5 6.1
2016-Feb-03 03:33N 34°34' E 135°20'1211.5
2016-Feb-03 02:31N 34°26' E 135°09'1110.9
2016-Feb-03 01:32N 34°18' E 135°00'1110.8
2016-Feb-03 00:30N 34°07' E 135°00'2 0.1
2016-Feb-01 11:33N 34°05' E 134°60'1613.2
2016-Feb-01 10:21N 34°21' E 134°60'1013.0
2016-Feb-01 09:33N 34°27' E 135°10'1212.2
2016-Feb-01 08:33N 34°35' E 135°21'4 3.8
2016-Feb-01 07:32N 34°34' E 135°26'0 0.0
2016-Feb-01 06:32N 34°34' E 135°26'0 0.0
2016-Feb-01 05:26N 34°34' E 135°26'0 0.3
2016-Feb-01 04:33N 34°35' E 135°25'4 4.2
2016-Feb-01 03:33N 34°36' E 135°20'  

Dump ship's entire track history